sensor_id;sensor_type;location;lat;lon;timestamp;P1;durP1;ratioP1;P2;durP2;ratioP2
80567;SDS011;69922;45.656;25.586;2024-02-14T00:01:00;0.30;;;0.30;;
80567;SDS011;69922;45.656;25.586;2024-02-14T00:02:16;0.30;;;0.20;;
80567;SDS011;69922;45.656;25.586;2024-02-14T00:03:23;0.30;;;0.30;;
80567;SDS011;69922;45.656;25.586;2024-02-14T00:04:32;0.30;;;0.30;;
80567;SDS011;69922;45.656;25.586;2024-02-14T00:05:39;1.00;;;0.30;;
80567;SDS011;69922;45.656;25.586;2024-02-14T00:06:46;0.30;;;0.20;;
80567;SDS011;69922;45.656;25.586;2024-02-14T00:07:53;0.20;;;0.20;;
80567;SDS011;69922;45.656;25.586;2024-02-14T00:08:59;0.40;;;0.30;;
80567;SDS011;69922;45.656;25.586;2024-02-14T00:10:07;0.30;;;0.30;;
80567;SDS011;69922;45.656;25.586;2024-02-14T00:11:14;0.40;;;0.40;;
80567;SDS011;69922;45.656;25.586;2024-02-14T00:12:22;0.40;;;0.40;;
80567;SDS011;69922;45.656;25.586;2024-02-14T00:13:28;0.40;;;0.40;;
80567;SDS011;69922;45.656;25.586;2024-02-14T00:14:39;0.40;;;0.40;;
80567;SDS011;69922;45.656;25.586;2024-02-14T00:15:48;0.40;;;0.40;;
80567;SDS011;69922;45.656;25.586;2024-02-14T00:16:55;0.50;;;0.50;;
80567;SDS011;69922;45.656;25.586;2024-02-14T00:19:09;0.30;;;0.30;;
80567;SDS011;69922;45.656;25.586;2024-02-14T00:20:18;0.50;;;0.40;;
80567;SDS011;69922;45.656;25.586;2024-02-14T00:21:26;0.30;;;0.30;;
80567;SDS011;69922;45.656;25.586;2024-02-14T00:22:32;0.40;;;0.30;;
80567;SDS011;69922;45.656;25.586;2024-02-14T00:23:40;0.30;;;0.30;;
80567;SDS011;69922;45.656;25.586;2024-02-14T00:24:46;0.40;;;0.30;;
80567;SDS011;69922;45.656;25.586;2024-02-14T00:25:53;0.40;;;0.40;;
80567;SDS011;69922;45.656;25.586;2024-02-14T00:27:00;0.50;;;0.40;;
80567;SDS011;69922;45.656;25.586;2024-02-14T00:28:07;0.60;;;0.40;;
80567;SDS011;69922;45.656;25.586;2024-02-14T00:29:14;0.50;;;0.50;;
80567;SDS011;69922;45.656;25.586;2024-02-14T00:30:21;0.40;;;0.40;;
80567;SDS011;69922;45.656;25.586;2024-02-14T00:31:34;0.60;;;0.60;;
80567;SDS011;69922;45.656;25.586;2024-02-14T00:32:41;0.40;;;0.40;;
80567;SDS011;69922;45.656;25.586;2024-02-14T00:33:49;0.40;;;0.40;;
80567;SDS011;69922;45.656;25.586;2024-02-14T00:34:56;0.80;;;0.60;;
80567;SDS011;69922;45.656;25.586;2024-02-14T00:36:03;0.90;;;0.50;;
80567;SDS011;69922;45.656;25.586;2024-02-14T00:37:11;0.70;;;0.60;;
80567;SDS011;69922;45.656;25.586;2024-02-14T00:38:18;0.70;;;0.60;;
80567;SDS011;69922;45.656;25.586;2024-02-14T00:39:25;0.50;;;0.50;;
80567;SDS011;69922;45.656;25.586;2024-02-14T00:40:31;0.40;;;0.40;;
80567;SDS011;69922;45.656;25.586;2024-02-14T00:41:38;1.00;;;0.60;;
80567;SDS011;69922;45.656;25.586;2024-02-14T00:42:45;0.50;;;0.40;;
80567;SDS011;69922;45.656;25.586;2024-02-14T00:43:52;0.90;;;0.70;;
80567;SDS011;69922;45.656;25.586;2024-02-14T00:44:59;0.70;;;0.60;;
80567;SDS011;69922;45.656;25.586;2024-02-14T00:46:08;0.60;;;0.60;;
80567;SDS011;69922;45.656;25.586;2024-02-14T00:47:21;0.70;;;0.60;;
80567;SDS011;69922;45.656;25.586;2024-02-14T00:48:28;1.00;;;0.90;;
80567;SDS011;69922;45.656;25.586;2024-02-14T00:49:37;0.80;;;0.80;;
80567;SDS011;69922;45.656;25.586;2024-02-14T00:50:44;1.00;;;0.80;;
80567;SDS011;69922;45.656;25.586;2024-02-14T00:51:50;1.30;;;1.00;;
80567;SDS011;69922;45.656;25.586;2024-02-14T00:52:57;1.60;;;0.70;;
80567;SDS011;69922;45.656;25.586;2024-02-14T00:54:04;1.10;;;0.70;;
80567;SDS011;69922;45.656;25.586;2024-02-14T00:55:12;0.70;;;0.70;;
80567;SDS011;69922;45.656;25.586;2024-02-14T00:56:18;1.30;;;0.80;;
80567;SDS011;69922;45.656;25.586;2024-02-14T00:57:25;0.70;;;0.70;;
80567;SDS011;69922;45.656;25.586;2024-02-14T00:58:34;0.90;;;0.90;;
80567;SDS011;69922;45.656;25.586;2024-02-14T00:59:40;1.00;;;0.80;;
80567;SDS011;69922;45.656;25.586;2024-02-14T01:00:47;1.10;;;0.80;;
80567;SDS011;69922;45.656;25.586;2024-02-14T01:01:54;1.10;;;0.80;;
80567;SDS011;69922;45.656;25.586;2024-02-14T01:03:01;0.80;;;0.70;;
80567;SDS011;69922;45.656;25.586;2024-02-14T01:04:09;0.80;;;0.70;;
80567;SDS011;69922;45.656;25.586;2024-02-14T01:05:16;0.60;;;0.60;;
80567;SDS011;69922;45.656;25.586;2024-02-14T01:06:25;0.60;;;0.60;;
80567;SDS011;69922;45.656;25.586;2024-02-14T01:07:32;0.80;;;0.60;;
80567;SDS011;69922;45.656;25.586;2024-02-14T01:08:38;1.00;;;0.80;;
80567;SDS011;69922;45.656;25.586;2024-02-14T01:09:46;0.90;;;0.60;;
80567;SDS011;69922;45.656;25.586;2024-02-14T01:10:54;1.30;;;0.70;;
80567;SDS011;69922;45.656;25.586;2024-02-14T01:12:01;0.50;;;0.50;;
80567;SDS011;69922;45.656;25.586;2024-02-14T01:13:09;0.80;;;0.60;;
80567;SDS011;69922;45.656;25.586;2024-02-14T01:14:17;0.50;;;0.50;;
80567;SDS011;69922;45.656;25.586;2024-02-14T01:15:24;0.80;;;0.80;;
80567;SDS011;69922;45.656;25.586;2024-02-14T01:16:31;0.80;;;0.60;;
80567;SDS011;69922;45.656;25.586;2024-02-14T01:17:38;1.10;;;0.60;;
80567;SDS011;69922;45.656;25.586;2024-02-14T01:18:46;0.70;;;0.70;;
80567;SDS011;69922;45.656;25.586;2024-02-14T01:19:53;0.60;;;0.60;;
80567;SDS011;69922;45.656;25.586;2024-02-14T01:21:00;0.70;;;0.70;;
80567;SDS011;69922;45.656;25.586;2024-02-14T01:22:07;0.60;;;0.50;;
80567;SDS011;69922;45.656;25.586;2024-02-14T01:23:14;0.60;;;0.60;;
80567;SDS011;69922;45.656;25.586;2024-02-14T01:24:21;0.60;;;0.60;;
80567;SDS011;69922;45.656;25.586;2024-02-14T01:25:31;0.80;;;0.60;;
80567;SDS011;69922;45.656;25.586;2024-02-14T01:26:38;0.90;;;0.50;;
80567;SDS011;69922;45.656;25.586;2024-02-14T01:27:45;0.60;;;0.50;;
80567;SDS011;69922;45.656;25.586;2024-02-14T01:28:53;2.10;;;0.70;;
80567;SDS011;69922;45.656;25.586;2024-02-14T01:30:00;0.40;;;0.40;;
80567;SDS011;69922;45.656;25.586;2024-02-14T01:31:11;0.60;;;0.60;;
80567;SDS011;69922;45.656;25.586;2024-02-14T01:32:18;0.60;;;0.60;;
80567;SDS011;69922;45.656;25.586;2024-02-14T01:33:24;0.40;;;0.40;;
80567;SDS011;69922;45.656;25.586;2024-02-14T01:34:33;0.60;;;0.50;;
80567;SDS011;69922;45.656;25.586;2024-02-14T01:35:40;0.90;;;0.60;;
80567;SDS011;69922;45.656;25.586;2024-02-14T01:36:48;0.70;;;0.60;;
80567;SDS011;69922;45.656;25.586;2024-02-14T01:37:54;1.90;;;1.00;;
80567;SDS011;69922;45.656;25.586;2024-02-14T01:39:02;0.70;;;0.70;;
80567;SDS011;69922;45.656;25.586;2024-02-14T01:40:16;0.90;;;0.70;;
80567;SDS011;69922;45.656;25.586;2024-02-14T01:41:25;0.80;;;0.60;;
80567;SDS011;69922;45.656;25.586;2024-02-14T01:42:32;0.60;;;0.60;;
80567;SDS011;69922;45.656;25.586;2024-02-14T01:43:39;1.50;;;0.90;;
80567;SDS011;69922;45.656;25.586;2024-02-14T01:44:47;1.10;;;0.90;;
80567;SDS011;69922;45.656;25.586;2024-02-14T01:45:53;0.70;;;0.70;;
80567;SDS011;69922;45.656;25.586;2024-02-14T01:47:00;0.80;;;0.70;;
80567;SDS011;69922;45.656;25.586;2024-02-14T01:48:08;0.80;;;0.70;;
80567;SDS011;69922;45.656;25.586;2024-02-14T01:49:17;1.10;;;0.90;;
80567;SDS011;69922;45.656;25.586;2024-02-14T01:50:25;1.70;;;1.10;;
80567;SDS011;69922;45.656;25.586;2024-02-14T01:51:36;1.10;;;0.80;;
80567;SDS011;69922;45.656;25.586;2024-02-14T01:52:46;1.30;;;1.00;;
80567;SDS011;69922;45.656;25.586;2024-02-14T01:53:54;1.70;;;1.10;;
80567;SDS011;69922;45.656;25.586;2024-02-14T01:55:04;1.70;;;0.90;;
80567;SDS011;69922;45.656;25.586;2024-02-14T01:56:13;1.20;;;1.00;;
80567;SDS011;69922;45.656;25.586;2024-02-14T01:57:21;1.40;;;1.00;;
80567;SDS011;69922;45.656;25.586;2024-02-14T01:58:30;1.10;;;1.00;;
80567;SDS011;69922;45.656;25.586;2024-02-14T01:59:38;1.30;;;1.00;;
80567;SDS011;69922;45.656;25.586;2024-02-14T02:00:45;1.50;;;1.10;;
80567;SDS011;69922;45.656;25.586;2024-02-14T02:01:52;1.30;;;1.10;;
80567;SDS011;69922;45.656;25.586;2024-02-14T02:02:59;1.40;;;1.30;;
80567;SDS011;69922;45.656;25.586;2024-02-14T02:04:08;2.20;;;1.20;;
80567;SDS011;69922;45.656;25.586;2024-02-14T02:05:15;1.50;;;1.30;;
80567;SDS011;69922;45.656;25.586;2024-02-14T02:06:23;1.80;;;1.40;;
80567;SDS011;69922;45.656;25.586;2024-02-14T02:07:33;1.20;;;1.10;;
80567;SDS011;69922;45.656;25.586;2024-02-14T02:08:44;1.30;;;1.10;;
80567;SDS011;69922;45.656;25.586;2024-02-14T02:09:53;1.50;;;1.40;;
80567;SDS011;69922;45.656;25.586;2024-02-14T02:11:00;1.60;;;1.00;;
80567;SDS011;69922;45.656;25.586;2024-02-14T02:12:07;1.80;;;1.40;;
80567;SDS011;69922;45.656;25.586;2024-02-14T02:13:15;1.70;;;1.30;;
80567;SDS011;69922;45.656;25.586;2024-02-14T02:14:23;1.80;;;1.30;;
80567;SDS011;69922;45.656;25.586;2024-02-14T02:15:31;1.60;;;1.50;;
80567;SDS011;69922;45.656;25.586;2024-02-14T02:16:38;1.40;;;1.10;;
80567;SDS011;69922;45.656;25.586;2024-02-14T02:17:45;1.40;;;1.30;;
80567;SDS011;69922;45.656;25.586;2024-02-14T02:18:57;1.50;;;1.30;;
80567;SDS011;69922;45.656;25.586;2024-02-14T02:20:06;1.70;;;1.20;;
80567;SDS011;69922;45.656;25.586;2024-02-14T02:21:16;1.60;;;1.30;;
80567;SDS011;69922;45.656;25.586;2024-02-14T02:22:28;1.60;;;1.20;;
80567;SDS011;69922;45.656;25.586;2024-02-14T02:23:38;1.10;;;1.00;;
80567;SDS011;69922;45.656;25.586;2024-02-14T02:24:48;1.30;;;1.00;;
80567;SDS011;69922;45.656;25.586;2024-02-14T02:25:55;1.60;;;1.10;;
80567;SDS011;69922;45.656;25.586;2024-02-14T02:27:02;1.20;;;1.10;;
80567;SDS011;69922;45.656;25.586;2024-02-14T02:28:09;1.90;;;1.20;;
80567;SDS011;69922;45.656;25.586;2024-02-14T02:29:16;1.20;;;1.00;;
80567;SDS011;69922;45.656;25.586;2024-02-14T02:30:24;1.60;;;1.20;;
80567;SDS011;69922;45.656;25.586;2024-02-14T02:31:32;2.20;;;1.50;;
80567;SDS011;69922;45.656;25.586;2024-02-14T02:32:40;1.30;;;1.20;;
80567;SDS011;69922;45.656;25.586;2024-02-14T02:33:48;1.50;;;1.40;;
80567;SDS011;69922;45.656;25.586;2024-02-14T02:34:56;1.70;;;1.10;;
80567;SDS011;69922;45.656;25.586;2024-02-14T02:36:05;1.20;;;1.00;;
80567;SDS011;69922;45.656;25.586;2024-02-14T02:37:14;1.00;;;0.90;;
80567;SDS011;69922;45.656;25.586;2024-02-14T02:38:22;1.50;;;1.20;;
80567;SDS011;69922;45.656;25.586;2024-02-14T02:39:29;1.40;;;1.30;;
80567;SDS011;69922;45.656;25.586;2024-02-14T02:40:37;1.60;;;1.20;;
80567;SDS011;69922;45.656;25.586;2024-02-14T02:41:46;1.40;;;1.20;;
80567;SDS011;69922;45.656;25.586;2024-02-14T02:43:59;1.90;;;1.30;;
80567;SDS011;69922;45.656;25.586;2024-02-14T02:45:06;1.40;;;1.10;;
80567;SDS011;69922;45.656;25.586;2024-02-14T02:46:14;1.60;;;1.10;;
80567;SDS011;69922;45.656;25.586;2024-02-14T02:47:21;1.90;;;1.30;;
80567;SDS011;69922;45.656;25.586;2024-02-14T02:48:28;1.40;;;1.20;;
80567;SDS011;69922;45.656;25.586;2024-02-14T02:49:36;0.90;;;0.80;;
80567;SDS011;69922;45.656;25.586;2024-02-14T02:50:44;1.80;;;1.00;;
80567;SDS011;69922;45.656;25.586;2024-02-14T02:51:54;1.30;;;1.00;;
80567;SDS011;69922;45.656;25.586;2024-02-14T02:53:01;1.10;;;1.00;;
80567;SDS011;69922;45.656;25.586;2024-02-14T02:54:09;1.20;;;1.00;;
80567;SDS011;69922;45.656;25.586;2024-02-14T02:55:17;0.70;;;0.70;;
80567;SDS011;69922;45.656;25.586;2024-02-14T02:56:25;0.80;;;0.80;;
80567;SDS011;69922;45.656;25.586;2024-02-14T02:57:34;2.90;;;1.00;;
80567;SDS011;69922;45.656;25.586;2024-02-14T02:58:43;1.20;;;1.00;;
80567;SDS011;69922;45.656;25.586;2024-02-14T02:59:51;1.50;;;0.80;;
80567;SDS011;69922;45.656;25.586;2024-02-14T03:00:58;0.80;;;0.70;;
80567;SDS011;69922;45.656;25.586;2024-02-14T03:02:06;1.10;;;1.00;;
80567;SDS011;69922;45.656;25.586;2024-02-14T03:03:16;0.90;;;0.90;;
80567;SDS011;69922;45.656;25.586;2024-02-14T03:04:23;1.40;;;1.00;;
80567;SDS011;69922;45.656;25.586;2024-02-14T03:05:49;2.20;;;1.10;;
80567;SDS011;69922;45.656;25.586;2024-02-14T03:06:59;1.40;;;0.70;;
80567;SDS011;69922;45.656;25.586;2024-02-14T03:08:11;1.00;;;0.90;;
80567;SDS011;69922;45.656;25.586;2024-02-14T03:09:21;0.80;;;0.80;;
80567;SDS011;69922;45.656;25.586;2024-02-14T03:10:31;1.70;;;1.10;;
80567;SDS011;69922;45.656;25.586;2024-02-14T03:11:38;1.10;;;0.70;;
80567;SDS011;69922;45.656;25.586;2024-02-14T03:12:46;0.90;;;0.70;;
80567;SDS011;69922;45.656;25.586;2024-02-14T03:13:53;0.70;;;0.70;;
80567;SDS011;69922;45.656;25.586;2024-02-14T03:15:00;0.80;;;0.60;;
80567;SDS011;69922;45.656;25.586;2024-02-14T03:16:12;1.00;;;0.70;;
80567;SDS011;69922;45.656;25.586;2024-02-14T03:17:20;1.10;;;1.00;;
80567;SDS011;69922;45.656;25.586;2024-02-14T03:18:26;0.90;;;0.70;;
80567;SDS011;69922;45.656;25.586;2024-02-14T03:19:34;1.00;;;0.60;;
80567;SDS011;69922;45.656;25.586;2024-02-14T03:20:43;0.70;;;0.60;;
80567;SDS011;69922;45.656;25.586;2024-02-14T03:21:50;1.00;;;0.70;;
80567;SDS011;69922;45.656;25.586;2024-02-14T03:22:58;1.10;;;0.70;;
80567;SDS011;69922;45.656;25.586;2024-02-14T03:24:05;0.50;;;0.50;;
80567;SDS011;69922;45.656;25.586;2024-02-14T03:25:15;0.60;;;0.60;;
80567;SDS011;69922;45.656;25.586;2024-02-14T03:26:23;1.00;;;0.70;;
80567;SDS011;69922;45.656;25.586;2024-02-14T03:27:32;1.70;;;0.70;;
80567;SDS011;69922;45.656;25.586;2024-02-14T03:28:42;0.60;;;0.60;;
80567;SDS011;69922;45.656;25.586;2024-02-14T03:29:48;1.30;;;0.80;;
80567;SDS011;69922;45.656;25.586;2024-02-14T03:30:55;1.10;;;0.80;;
80567;SDS011;69922;45.656;25.586;2024-02-14T03:32:03;1.10;;;0.70;;
80567;SDS011;69922;45.656;25.586;2024-02-14T03:33:13;1.10;;;0.80;;
80567;SDS011;69922;45.656;25.586;2024-02-14T03:34:20;1.20;;;0.80;;
80567;SDS011;69922;45.656;25.586;2024-02-14T03:35:28;0.80;;;0.70;;
80567;SDS011;69922;45.656;25.586;2024-02-14T03:36:36;1.10;;;0.70;;
80567;SDS011;69922;45.656;25.586;2024-02-14T03:37:45;1.10;;;0.80;;
80567;SDS011;69922;45.656;25.586;2024-02-14T03:38:53;1.10;;;0.70;;
80567;SDS011;69922;45.656;25.586;2024-02-14T03:40:00;1.50;;;1.00;;
80567;SDS011;69922;45.656;25.586;2024-02-14T03:41:08;2.90;;;1.00;;
80567;SDS011;69922;45.656;25.586;2024-02-14T03:42:15;1.40;;;0.80;;
80567;SDS011;69922;45.656;25.586;2024-02-14T03:43:24;2.00;;;1.00;;
80567;SDS011;69922;45.656;25.586;2024-02-14T03:44:31;2.60;;;1.30;;
80567;SDS011;69922;45.656;25.586;2024-02-14T03:45:38;2.60;;;1.50;;
80567;SDS011;69922;45.656;25.586;2024-02-14T03:46:46;2.60;;;1.90;;
80567;SDS011;69922;45.656;25.586;2024-02-14T03:47:53;4.00;;;2.10;;
80567;SDS011;69922;45.656;25.586;2024-02-14T03:49:00;6.10;;;2.50;;
80567;SDS011;69922;45.656;25.586;2024-02-14T03:50:08;5.30;;;2.40;;
80567;SDS011;69922;45.656;25.586;2024-02-14T03:51:17;5.10;;;2.60;;
80567;SDS011;69922;45.656;25.586;2024-02-14T03:52:25;4.30;;;2.50;;
80567;SDS011;69922;45.656;25.586;2024-02-14T03:53:32;4.00;;;2.30;;
80567;SDS011;69922;45.656;25.586;2024-02-14T03:54:39;3.70;;;2.40;;
80567;SDS011;69922;45.656;25.586;2024-02-14T03:55:46;4.30;;;2.10;;
80567;SDS011;69922;45.656;25.586;2024-02-14T03:56:54;2.70;;;2.10;;
80567;SDS011;69922;45.656;25.586;2024-02-14T03:58:01;2.60;;;1.70;;
80567;SDS011;69922;45.656;25.586;2024-02-14T03:59:09;2.20;;;1.70;;
80567;SDS011;69922;45.656;25.586;2024-02-14T04:00:17;4.00;;;1.80;;
80567;SDS011;69922;45.656;25.586;2024-02-14T04:01:27;2.10;;;1.20;;
80567;SDS011;69922;45.656;25.586;2024-02-14T04:02:36;2.30;;;1.40;;
80567;SDS011;69922;45.656;25.586;2024-02-14T04:03:45;3.40;;;2.10;;
80567;SDS011;69922;45.656;25.586;2024-02-14T04:04:53;3.20;;;2.00;;
80567;SDS011;69922;45.656;25.586;2024-02-14T04:06:00;3.10;;;1.60;;
80567;SDS011;69922;45.656;25.586;2024-02-14T04:07:08;3.00;;;2.10;;
80567;SDS011;69922;45.656;25.586;2024-02-14T04:08:15;3.40;;;2.20;;
80567;SDS011;69922;45.656;25.586;2024-02-14T04:09:23;3.60;;;2.20;;
80567;SDS011;69922;45.656;25.586;2024-02-14T04:10:30;2.70;;;1.90;;
80567;SDS011;69922;45.656;25.586;2024-02-14T04:11:37;3.50;;;2.20;;
80567;SDS011;69922;45.656;25.586;2024-02-14T04:12:44;4.30;;;2.40;;
80567;SDS011;69922;45.656;25.586;2024-02-14T04:13:51;3.70;;;2.30;;
80567;SDS011;69922;45.656;25.586;2024-02-14T04:14:58;5.40;;;2.30;;
80567;SDS011;69922;45.656;25.586;2024-02-14T04:16:06;4.20;;;2.30;;
80567;SDS011;69922;45.656;25.586;2024-02-14T04:17:14;4.40;;;2.20;;
80567;SDS011;69922;45.656;25.586;2024-02-14T04:18:21;3.70;;;2.30;;
80567;SDS011;69922;45.656;25.586;2024-02-14T04:19:29;5.10;;;2.20;;
80567;SDS011;69922;45.656;25.586;2024-02-14T04:20:36;3.00;;;2.00;;
80567;SDS011;69922;45.656;25.586;2024-02-14T04:21:43;3.80;;;2.30;;
80567;SDS011;69922;45.656;25.586;2024-02-14T04:22:51;4.20;;;2.40;;
80567;SDS011;69922;45.656;25.586;2024-02-14T04:23:57;4.30;;;2.10;;
80567;SDS011;69922;45.656;25.586;2024-02-14T04:25:07;3.20;;;1.80;;
80567;SDS011;69922;45.656;25.586;2024-02-14T04:26:19;3.10;;;2.00;;
80567;SDS011;69922;45.656;25.586;2024-02-14T04:27:27;3.00;;;2.20;;
80567;SDS011;69922;45.656;25.586;2024-02-14T04:28:35;3.60;;;2.00;;
80567;SDS011;69922;45.656;25.586;2024-02-14T04:29:47;3.70;;;2.30;;
80567;SDS011;69922;45.656;25.586;2024-02-14T04:30:54;3.40;;;2.10;;
80567;SDS011;69922;45.656;25.586;2024-02-14T04:32:01;3.50;;;2.30;;
80567;SDS011;69922;45.656;25.586;2024-02-14T04:33:08;3.00;;;1.90;;
80567;SDS011;69922;45.656;25.586;2024-02-14T04:34:18;3.50;;;1.90;;
80567;SDS011;69922;45.656;25.586;2024-02-14T04:35:25;2.90;;;2.20;;
80567;SDS011;69922;45.656;25.586;2024-02-14T04:36:32;3.00;;;2.30;;
80567;SDS011;69922;45.656;25.586;2024-02-14T04:37:40;3.30;;;2.10;;
80567;SDS011;69922;45.656;25.586;2024-02-14T04:38:50;4.00;;;2.70;;
80567;SDS011;69922;45.656;25.586;2024-02-14T04:39:57;2.70;;;1.90;;
80567;SDS011;69922;45.656;25.586;2024-02-14T04:41:04;3.30;;;2.10;;
80567;SDS011;69922;45.656;25.586;2024-02-14T04:42:11;2.80;;;2.20;;
80567;SDS011;69922;45.656;25.586;2024-02-14T04:43:18;3.00;;;2.20;;
80567;SDS011;69922;45.656;25.586;2024-02-14T04:44:24;4.00;;;2.20;;
80567;SDS011;69922;45.656;25.586;2024-02-14T04:45:32;3.50;;;2.50;;
80567;SDS011;69922;45.656;25.586;2024-02-14T04:46:40;2.80;;;2.20;;
80567;SDS011;69922;45.656;25.586;2024-02-14T04:47:49;3.70;;;2.60;;
80567;SDS011;69922;45.656;25.586;2024-02-14T04:48:56;2.60;;;2.20;;
80567;SDS011;69922;45.656;25.586;2024-02-14T04:50:05;3.20;;;2.30;;
80567;SDS011;69922;45.656;25.586;2024-02-14T04:51:13;4.20;;;2.60;;
80567;SDS011;69922;45.656;25.586;2024-02-14T04:52:21;3.90;;;2.40;;
80567;SDS011;69922;45.656;25.586;2024-02-14T04:53:29;3.00;;;2.50;;
80567;SDS011;69922;45.656;25.586;2024-02-14T04:54:36;4.50;;;2.80;;
80567;SDS011;69922;45.656;25.586;2024-02-14T04:55:44;4.10;;;2.80;;
80567;SDS011;69922;45.656;25.586;2024-02-14T04:56:51;3.60;;;2.50;;
80567;SDS011;69922;45.656;25.586;2024-02-14T04:58:03;2.50;;;1.90;;
80567;SDS011;69922;45.656;25.586;2024-02-14T04:59:12;3.50;;;2.60;;
80567;SDS011;69922;45.656;25.586;2024-02-14T05:00:20;3.90;;;2.20;;
80567;SDS011;69922;45.656;25.586;2024-02-14T05:01:28;2.90;;;2.20;;
80567;SDS011;69922;45.656;25.586;2024-02-14T05:02:34;3.80;;;2.40;;
80567;SDS011;69922;45.656;25.586;2024-02-14T05:03:42;2.80;;;2.40;;
80567;SDS011;69922;45.656;25.586;2024-02-14T05:04:49;2.90;;;2.10;;
80567;SDS011;69922;45.656;25.586;2024-02-14T05:05:56;3.50;;;2.30;;
80567;SDS011;69922;45.656;25.586;2024-02-14T05:07:07;5.40;;;2.70;;
80567;SDS011;69922;45.656;25.586;2024-02-14T05:08:14;5.40;;;3.20;;
80567;SDS011;69922;45.656;25.586;2024-02-14T05:09:20;3.10;;;2.40;;
80567;SDS011;69922;45.656;25.586;2024-02-14T05:10:27;3.50;;;2.50;;
80567;SDS011;69922;45.656;25.586;2024-02-14T05:11:34;2.90;;;2.00;;
80567;SDS011;69922;45.656;25.586;2024-02-14T05:12:41;3.70;;;2.30;;
80567;SDS011;69922;45.656;25.586;2024-02-14T05:13:48;3.30;;;2.00;;
80567;SDS011;69922;45.656;25.586;2024-02-14T05:14:55;3.20;;;2.10;;
80567;SDS011;69922;45.656;25.586;2024-02-14T05:16:04;2.60;;;2.00;;
80567;SDS011;69922;45.656;25.586;2024-02-14T05:17:14;2.90;;;1.90;;
80567;SDS011;69922;45.656;25.586;2024-02-14T05:18:21;2.20;;;1.90;;
80567;SDS011;69922;45.656;25.586;2024-02-14T05:19:29;4.40;;;2.20;;
80567;SDS011;69922;45.656;25.586;2024-02-14T05:20:37;2.50;;;2.10;;
80567;SDS011;69922;45.656;25.586;2024-02-14T05:21:45;3.20;;;2.30;;
80567;SDS011;69922;45.656;25.586;2024-02-14T05:22:51;3.80;;;2.30;;
80567;SDS011;69922;45.656;25.586;2024-02-14T05:23:59;3.30;;;2.00;;
80567;SDS011;69922;45.656;25.586;2024-02-14T05:25:06;2.60;;;1.90;;
80567;SDS011;69922;45.656;25.586;2024-02-14T05:26:13;2.70;;;2.00;;
80567;SDS011;69922;45.656;25.586;2024-02-14T05:27:20;2.70;;;2.30;;
80567;SDS011;69922;45.656;25.586;2024-02-14T05:28:27;2.40;;;1.90;;
80567;SDS011;69922;45.656;25.586;2024-02-14T05:29:34;2.20;;;1.70;;
80567;SDS011;69922;45.656;25.586;2024-02-14T05:30:41;2.50;;;1.80;;
80567;SDS011;69922;45.656;25.586;2024-02-14T05:31:49;2.50;;;1.80;;
80567;SDS011;69922;45.656;25.586;2024-02-14T05:33:00;2.90;;;1.90;;
80567;SDS011;69922;45.656;25.586;2024-02-14T05:34:08;2.60;;;2.20;;
80567;SDS011;69922;45.656;25.586;2024-02-14T05:35:15;2.70;;;2.20;;
80567;SDS011;69922;45.656;25.586;2024-02-14T05:36:22;3.10;;;2.60;;
80567;SDS011;69922;45.656;25.586;2024-02-14T05:37:30;2.70;;;2.30;;
80567;SDS011;69922;45.656;25.586;2024-02-14T05:38:41;3.60;;;2.30;;
80567;SDS011;69922;45.656;25.586;2024-02-14T05:39:49;2.90;;;2.00;;
80567;SDS011;69922;45.656;25.586;2024-02-14T05:40:58;2.20;;;1.70;;
80567;SDS011;69922;45.656;25.586;2024-02-14T05:42:06;3.40;;;2.30;;
80567;SDS011;69922;45.656;25.586;2024-02-14T05:43:14;4.50;;;2.30;;
80567;SDS011;69922;45.656;25.586;2024-02-14T05:44:21;2.90;;;1.80;;
80567;SDS011;69922;45.656;25.586;2024-02-14T05:45:31;2.50;;;2.20;;
80567;SDS011;69922;45.656;25.586;2024-02-14T05:46:39;3.00;;;2.10;;
80567;SDS011;69922;45.656;25.586;2024-02-14T05:47:46;3.20;;;2.20;;
80567;SDS011;69922;45.656;25.586;2024-02-14T05:48:53;2.60;;;1.90;;
80567;SDS011;69922;45.656;25.586;2024-02-14T05:50:03;3.60;;;1.80;;
80567;SDS011;69922;45.656;25.586;2024-02-14T05:51:15;3.30;;;2.10;;
80567;SDS011;69922;45.656;25.586;2024-02-14T05:52:21;3.00;;;1.90;;
80567;SDS011;69922;45.656;25.586;2024-02-14T05:53:28;3.20;;;1.80;;
80567;SDS011;69922;45.656;25.586;2024-02-14T05:54:35;3.20;;;2.10;;
80567;SDS011;69922;45.656;25.586;2024-02-14T05:55:42;2.30;;;1.60;;
80567;SDS011;69922;45.656;25.586;2024-02-14T05:56:49;2.80;;;2.00;;
80567;SDS011;69922;45.656;25.586;2024-02-14T05:57:56;3.20;;;2.00;;
80567;SDS011;69922;45.656;25.586;2024-02-14T05:59:04;2.70;;;2.10;;
80567;SDS011;69922;45.656;25.586;2024-02-14T06:00:11;2.40;;;1.90;;
80567;SDS011;69922;45.656;25.586;2024-02-14T06:01:19;3.00;;;2.40;;
80567;SDS011;69922;45.656;25.586;2024-02-14T06:02:26;2.90;;;2.20;;
80567;SDS011;69922;45.656;25.586;2024-02-14T06:03:33;2.80;;;2.00;;
80567;SDS011;69922;45.656;25.586;2024-02-14T06:04:40;2.70;;;2.10;;
80567;SDS011;69922;45.656;25.586;2024-02-14T06:05:47;3.90;;;2.90;;
80567;SDS011;69922;45.656;25.586;2024-02-14T06:06:58;4.20;;;2.00;;
80567;SDS011;69922;45.656;25.586;2024-02-14T06:08:06;3.40;;;1.90;;
80567;SDS011;69922;45.656;25.586;2024-02-14T06:09:13;3.10;;;2.40;;
80567;SDS011;69922;45.656;25.586;2024-02-14T06:10:20;3.80;;;2.40;;
80567;SDS011;69922;45.656;25.586;2024-02-14T06:11:30;5.70;;;2.40;;
80567;SDS011;69922;45.656;25.586;2024-02-14T06:12:36;4.10;;;2.30;;
80567;SDS011;69922;45.656;25.586;2024-02-14T06:13:48;3.10;;;2.30;;
80567;SDS011;69922;45.656;25.586;2024-02-14T06:14:56;3.90;;;2.30;;
80567;SDS011;69922;45.656;25.586;2024-02-14T06:16:03;3.00;;;2.00;;
80567;SDS011;69922;45.656;25.586;2024-02-14T06:17:10;2.70;;;2.20;;
80567;SDS011;69922;45.656;25.586;2024-02-14T06:18:18;3.20;;;2.30;;
80567;SDS011;69922;45.656;25.586;2024-02-14T06:19:26;3.50;;;1.90;;
80567;SDS011;69922;45.656;25.586;2024-02-14T06:20:33;3.50;;;2.30;;
80567;SDS011;69922;45.656;25.586;2024-02-14T06:21:39;2.80;;;2.10;;
80567;SDS011;69922;45.656;25.586;2024-02-14T06:22:46;3.50;;;2.50;;
80567;SDS011;69922;45.656;25.586;2024-02-14T06:24:05;3.00;;;2.10;;
80567;SDS011;69922;45.656;25.586;2024-02-14T06:25:15;3.20;;;2.20;;
80567;SDS011;69922;45.656;25.586;2024-02-14T06:26:21;2.60;;;2.10;;
80567;SDS011;69922;45.656;25.586;2024-02-14T06:27:28;3.70;;;2.90;;
80567;SDS011;69922;45.656;25.586;2024-02-14T06:28:35;2.50;;;2.20;;
80567;SDS011;69922;45.656;25.586;2024-02-14T06:29:43;4.10;;;2.80;;
80567;SDS011;69922;45.656;25.586;2024-02-14T06:30:50;3.40;;;2.30;;
80567;SDS011;69922;45.656;25.586;2024-02-14T06:31:58;3.30;;;2.50;;
80567;SDS011;69922;45.656;25.586;2024-02-14T06:33:06;3.60;;;2.70;;
80567;SDS011;69922;45.656;25.586;2024-02-14T06:34:13;3.60;;;2.40;;
80567;SDS011;69922;45.656;25.586;2024-02-14T06:35:20;4.20;;;2.50;;
80567;SDS011;69922;45.656;25.586;2024-02-14T06:36:28;4.30;;;2.90;;
80567;SDS011;69922;45.656;25.586;2024-02-14T06:37:35;4.10;;;2.80;;
80567;SDS011;69922;45.656;25.586;2024-02-14T06:38:56;4.20;;;2.90;;
80567;SDS011;69922;45.656;25.586;2024-02-14T06:40:03;5.00;;;3.10;;
80567;SDS011;69922;45.656;25.586;2024-02-14T06:41:13;5.50;;;2.90;;
80567;SDS011;69922;45.656;25.586;2024-02-14T06:42:19;5.60;;;3.00;;
80567;SDS011;69922;45.656;25.586;2024-02-14T06:43:26;4.20;;;2.80;;
80567;SDS011;69922;45.656;25.586;2024-02-14T06:44:33;4.80;;;3.10;;
80567;SDS011;69922;45.656;25.586;2024-02-14T06:45:40;4.40;;;2.90;;